Time;durP1;ratioP1;P1;durP2;ratioP2;P2;SDS_P1;SDS_P2;PMS_P1;PMS_P2;Temp;Humidity;BMP_temperature;BMP_pressure;BME280_temperature;BME280_humidity;BME280_pressure;Samples;Min_cycle;Max_cycle;Signal;HPM_P1;HPM_P2
2021/05/10 00:01:01;;;;;;;2.22;0.85;;;19.90;55.30;;;;;;5059822;28;20032;-74
2021/05/10 00:03:29;;;;;;;2.80;0.60;;;19.90;55.50;;;;;;5060671;28;20103;-74
2021/05/10 00:05:57;;;;;;;1.70;0.65;;;19.80;55.70;;;;;;5059742;28;20032;-74
2021/05/10 00:08:26;;;;;;;3.78;0.90;;;19.80;55.60;;;;;;5061076;28;20028;-74
2021/05/10 00:10:54;;;;;;;1.65;0.60;;;19.80;55.80;;;;;;5061300;28;20017;-74
2021/05/10 00:13:24;;;;;;;3.10;0.90;;;19.80;55.70;;;;;;5059206;28;20084;-74
2021/05/10 00:15:52;;;;;;;2.75;0.70;;;19.80;55.70;;;;;;5060569;28;20029;-74
2021/05/10 00:18:20;;;;;;;2.83;0.90;;;19.80;55.60;;;;;;5060393;28;20425;-74
2021/05/10 00:20:48;;;;;;;3.13;1.67;;;19.80;55.70;;;;;;5061090;28;20025;-74
2021/05/10 00:23:18;;;;;;;2.47;1.10;;;19.80;55.90;;;;;;5060224;28;20044;-74
2021/05/10 00:25:46;;;;;;;2.55;0.82;;;19.80;55.60;;;;;;5060706;28;20428;-74
2021/05/10 00:28:14;;;;;;;5.20;0.90;;;19.90;55.90;;;;;;5060444;28;20029;-74
2021/05/10 00:30:41;;;;;;;1.70;0.90;;;19.90;56.00;;;;;;5059249;28;20048;-74
2021/05/10 00:33:09;;;;;;;3.03;0.90;;;19.80;56.20;;;;;;5060450;28;20017;-74
2021/05/10 00:35:36;;;;;;;4.65;1.00;;;19.80;56.30;;;;;;5059160;28;20021;-74
2021/05/10 00:38:03;;;;;;;2.97;0.82;;;19.80;56.10;;;;;;5059132;28;20373;-74
2021/05/10 00:40:34;;;;;;;1.42;0.80;;;19.80;56.40;;;;;;5060452;28;20028;-74
2021/05/10 00:43:01;;;;;;;4.13;1.08;;;19.70;56.50;;;;;;5060323;28;20036;-74
2021/05/10 00:45:29;;;;;;;2.22;0.77;;;19.70;56.80;;;;;;5059021;28;20025;-74
2021/05/10 00:47:56;;;;;;;3.50;0.85;;;19.70;56.90;;;;;;5059939;28;20017;-74
2021/05/10 00:50:25;;;;;;;2.38;0.70;;;19.70;56.90;;;;;;5060294;28;20024;-74
2021/05/10 00:52:53;;;;;;;1.58;0.90;;;19.70;56.90;;;;;;5060010;28;20025;-74
2021/05/10 00:55:20;;;;;;;2.92;0.93;;;19.70;57.10;;;;;;5059697;28;20112;-74
2021/05/10 00:58:02;;;;;;;2.45;0.80;;;19.60;57.10;;;;;;5060555;28;20021;-74
2021/05/10 01:00:39;;;;;;;3.28;0.93;;;19.60;57.50;;;;;;5059765;28;20377;-74
2021/05/10 01:03:08;;;;;;;3.63;0.90;;;19.50;58.20;;;;;;5059728;28;20420;-74
2021/05/10 01:05:39;;;;;;;5.47;1.25;;;19.50;58.20;;;;;;5059727;28;20068;-74
2021/05/10 01:08:07;;;;;;;4.13;0.90;;;19.40;58.20;;;;;;5058762;28;20025;-74
2021/05/10 01:10:35;;;;;;;3.10;1.13;;;19.40;59.10;;;;;;5059597;28;20021;-74
2021/05/10 01:13:03;;;;;;;1.60;0.90;;;19.30;59.40;;;;;;5060122;28;20078;-74
2021/05/10 01:15:32;;;;;;;1.83;0.93;;;19.20;60.00;;;;;;5059785;28;20025;-74
2021/05/10 01:17:59;;;;;;;3.28;0.85;;;19.20;60.40;;;;;;5059598;28;20024;-74
2021/05/10 01:20:27;;;;;;;1.60;0.80;;;19.10;61.10;;;;;;5059078;28;20378;-75
2021/05/10 01:22:57;;;;;;;2.08;0.90;;;19.00;61.60;;;;;;5059226;28;20127;-74
2021/05/10 01:25:32;;;;;;;2.13;0.80;;;18.90;60.80;;;;;;5059561;28;20021;-74
2021/05/10 01:28:01;;;;;;;2.88;0.90;;;18.90;60.10;;;;;;5060005;28;20451;-74
2021/05/10 01:30:32;;;;;;;4.10;1.15;;;19.00;59.60;;;;;;5059229;28;20028;-74
2021/05/10 01:33:01;;;;;;;5.13;0.90;;;19.00;59.60;;;;;;5058134;28;20432;-74
2021/05/10 01:35:30;;;;;;;3.70;0.88;;;19.10;59.50;;;;;;5058070;28;20021;-74
2021/05/10 01:37:58;;;;;;;3.13;1.00;;;19.20;59.40;;;;;;5059261;28;20413;-74
2021/05/10 01:40:28;;;;;;;2.20;1.10;;;19.20;59.40;;;;;;5057941;28;20029;-74
2021/05/10 01:42:56;;;;;;;1.77;0.95;;;19.20;59.20;;;;;;5058893;28;20043;-74
2021/05/10 01:45:28;;;;;;;3.70;1.15;;;19.20;59.30;;;;;;5058928;28;20021;-74
2021/05/10 01:48:07;;;;;;;1.88;1.42;;;19.30;59.40;;;;;;5059554;28;20052;-74
2021/05/10 01:50:36;;;;;;;1.85;0.80;;;19.30;59.70;;;;;;5059138;28;20014;-74
2021/05/10 01:53:05;;;;;;;1.95;0.90;;;19.30;59.90;;;;;;5058763;28;20053;-74
2021/05/10 01:55:34;;;;;;;5.10;1.20;;;19.20;60.60;;;;;;5058234;28;20028;-74
2021/05/10 01:58:02;;;;;;;2.72;1.00;;;19.20;61.10;;;;;;5059266;28;20467;-74
2021/05/10 02:00:44;;;;;;;5.90;1.00;;;19.10;61.10;;;;;;5059209;28;20032;-74
2021/05/10 02:03:15;;;;;;;4.50;1.20;;;19.10;61.10;;;;;;5058989;28;20047;-74
2021/05/10 02:05:43;;;;;;;1.75;0.90;;;19.10;61.30;;;;;;5057809;28;20071;-74
2021/05/10 02:08:12;;;;;;;1.38;0.80;;;19.00;61.70;;;;;;5058947;28;20028;-74
2021/05/10 02:10:42;;;;;;;3.90;1.05;;;19.00;61.80;;;;;;5058490;28;20060;-74
2021/05/10 02:13:19;;;;;;;1.75;0.68;;;19.00;60.50;;;;;;5058405;28;20086;-74
2021/05/10 02:15:49;;;;;;;4.93;1.10;;;19.10;60.20;;;;;;5058902;28;20017;-74
2021/05/10 02:18:23;;;;;;;4.22;1.00;;;19.20;59.80;;;;;;5058310;28;20028;-74
2021/05/10 02:20:54;;;;;;;1.83;0.80;;;19.30;59.60;;;;;;5058541;28;20112;-74
2021/05/10 02:23:24;;;;;;;2.80;0.85;;;19.40;59.30;;;;;;5057878;28;20124;-74
2021/05/10 02:25:57;;;;;;;4.30;1.13;;;19.50;59.30;;;;;;5057997;28;20408;-74
2021/05/10 02:28:26;;;;;;;1.67;0.88;;;19.50;59.70;;;;;;5058439;28;20469;-74
2021/05/10 02:30:56;;;;;;;2.75;1.40;;;19.40;59.40;;;;;;5057044;28;20025;-74
2021/05/10 02:33:26;;;;;;;6.70;1.10;;;19.40;59.80;;;;;;5058115;28;20017;-74
2021/05/10 02:35:54;;;;;;;2.20;0.93;;;19.30;60.70;;;;;;5058249;28;20025;-74
2021/05/10 02:38:23;;;;;;;2.03;0.90;;;19.30;61.70;;;;;;5057014;28;20025;-74
2021/05/10 02:40:51;;;;;;;3.53;0.93;;;19.10;62.20;;;;;;5058152;28;20025;-74
2021/05/10 02:43:21;;;;;;;2.28;1.00;;;19.10;62.40;;;;;;5058351;28;20029;-73
2021/05/10 02:45:50;;;;;;;1.60;1.00;;;18.90;62.70;;;;;;5058097;28;20021;-73
2021/05/10 02:48:18;;;;;;;7.85;0.90;;;18.90;63.10;;;;;;5058171;28;20014;-74
2021/05/10 02:50:45;;;;;;;4.85;1.10;;;18.80;63.20;;;;;;5056690;28;20025;-74
2021/05/10 02:53:13;;;;;;;2.33;0.80;;;18.80;63.20;;;;;;5058278;28;20086;-73
2021/05/10 02:55:41;;;;;;;2.08;0.90;;;18.80;63.50;;;;;;5057922;28;20107;-74
2021/05/10 02:58:09;;;;;;;5.28;1.05;;;18.70;63.90;;;;;;5057805;28;20048;-74
2021/05/10 03:00:36;;;;;;;1.50;1.10;;;18.70;64.40;;;;;;5056528;28;20112;-73
2021/05/10 03:03:05;;;;;;;1.85;0.80;;;18.70;63.90;;;;;;5055729;28;20021;-74
2021/05/10 03:05:32;;;;;;;6.53;0.98;;;18.60;63.90;;;;;;5056419;28;20025;-74
2021/05/10 03:08:01;;;;;;;5.10;1.33;;;18.60;64.00;;;;;;5057706;28;20028;-74
2021/05/10 03:10:29;;;;;;;4.03;1.05;;;18.60;63.90;;;;;;5057481;28;20082;-73
2021/05/10 03:12:57;;;;;;;3.22;1.20;;;18.60;64.10;;;;;;5057726;28;20021;-74
2021/05/10 03:15:24;;;;;;;2.53;1.10;;;18.60;64.80;;;;;;5057331;28;20108;-74
2021/05/10 03:17:52;;;;;;;2.38;0.82;;;18.60;65.40;;;;;;5056262;28;20061;-74
2021/05/10 03:20:22;;;;;;;4.80;1.27;;;18.60;65.00;;;;;;5057919;28;20024;-74
2021/05/10 03:22:52;;;;;;;4.40;1.10;;;18.50;65.80;;;;;;5057755;28;20060;-73
2021/05/10 03:25:21;;;;;;;2.05;1.00;;;18.50;66.20;;;;;;5057588;28;20078;-74
2021/05/10 03:27:52;;;;;;;1.15;0.80;;;18.50;66.10;;;;;;5057628;28;20415;-74
2021/05/10 03:30:23;;;;;;;1.83;1.00;;;18.40;66.40;;;;;;5057519;28;20032;-74
2021/05/10 03:32:51;;;;;;;7.60;1.15;;;18.40;67.10;;;;;;5057600;28;20365;-74
2021/05/10 03:35:20;;;;;;;2.28;1.00;;;18.30;67.10;;;;;;5056922;28;20032;-74
2021/05/10 03:37:48;;;;;;;1.92;1.08;;;18.30;67.10;;;;;;5056163;28;20028;-74
2021/05/10 03:40:17;;;;;;;2.20;0.88;;;18.20;67.70;;;;;;5057180;28;20028;-74
2021/05/10 03:42:46;;;;;;;2.67;1.10;;;18.20;67.90;;;;;;5056203;28;20060;-74
2021/05/10 03:45:15;;;;;;;6.68;1.13;;;18.20;68.80;;;;;;5057620;28;20083;-74
2021/05/10 03:47:43;;;;;;;1.65;0.90;;;18.10;68.60;;;;;;5055967;28;20029;-74
2021/05/10 03:50:16;;;;;;;3.38;1.15;;;18.00;68.50;;;;;;5055971;28;20044;-74
2021/05/10 03:52:51;;;;;;;5.97;1.13;;;18.00;68.90;;;;;;5056117;28;20029;-74
2021/05/10 03:55:21;;;;;;;2.17;1.45;;;18.00;69.30;;;;;;5057562;28;20036;-73
2021/05/10 03:57:49;;;;;;;5.00;0.90;;;17.90;70.40;;;;;;5057325;28;20025;-74
2021/05/10 04:00:18;;;;;;;5.82;1.33;;;17.90;71.00;;;;;;5057528;28;20100;-74
2021/05/10 04:02:46;;;;;;;7.20;1.00;;;17.80;72.20;;;;;;5057264;28;20029;-73
2021/05/10 04:07:57;;;;;;;4.38;1.23;;;17.70;72.30;;;;;;5056820;28;20025;-74
2021/05/10 04:15:51;;;;;;;8.15;1.10;;;17.50;73.80;;;;;;5057191;28;20055;-74
2021/05/10 04:18:21;;;;;;;2.22;0.98;;;17.50;74.30;;;;;;5056723;28;20025;-74
2021/05/10 04:20:50;;;;;;;2.60;0.90;;;17.50;74.80;;;;;;5057347;28;20146;-74
2021/05/10 04:23:21;;;;;;;9.43;1.40;;;17.50;74.90;;;;;;5055448;28;20068;-74
2021/05/10 04:25:50;;;;;;;4.38;1.30;;;17.50;75.30;;;;;;5056792;28;20054;-74
2021/05/10 04:28:19;;;;;;;3.10;1.52;;;17.50;75.70;;;;;;5056825;28;20021;-74
2021/05/10 04:30:47;;;;;;;5.05;1.15;;;17.50;76.00;;;;;;5059835;28;20021;-74
2021/05/10 04:33:15;;;;;;;5.00;2.15;;;17.50;75.80;;;;;;5060556;28;20108;-74
2021/05/10 04:35:43;;;;;;;5.05;1.40;;;17.50;75.70;;;;;;5060577;28;20320;-73
2021/05/10 04:38:12;;;;;;;4.20;1.20;;;17.60;76.40;;;;;;5060544;28;20021;-73
2021/05/10 04:40:40;;;;;;;3.53;1.30;;;17.60;76.30;;;;;;5060196;28;20032;-73
2021/05/10 04:43:08;;;;;;;2.90;1.40;;;17.60;76.50;;;;;;5058510;28;20025;-74
2021/05/10 04:45:35;;;;;;;3.50;1.33;;;17.60;77.50;;;;;;5060356;28;20017;-74
2021/05/10 04:48:05;;;;;;;5.53;1.10;;;17.60;78.40;;;;;;5060072;28;20021;-74
2021/05/10 04:50:33;;;;;;;2.88;1.23;;;17.50;78.50;;;;;;5059998;28;20377;-74
2021/05/10 04:53:01;;;;;;;2.25;1.27;;;17.50;79.10;;;;;;5060676;28;20318;-74
2021/05/10 04:55:28;;;;;;;3.53;1.52;;;17.50;79.10;;;;;;5059910;28;20103;-73
2021/05/10 04:57:56;;;;;;;7.18;1.20;;;17.40;79.60;;;;;;5060459;28;20436;-73
2021/05/10 05:00:24;;;;;;;4.38;1.50;;;17.40;80.50;;;;;;5058708;28;20119;-74
2021/05/10 05:02:51;;;;;;;4.90;1.40;;;17.30;82.60;;;;;;5060143;28;20025;-74
2021/05/10 05:05:19;;;;;;;3.10;1.50;;;17.30;83.50;;;;;;5059700;28;20052;-73
2021/05/10 05:07:47;;;;;;;8.35;1.75;;;17.10;83.70;;;;;;5058683;28;20021;-74
2021/05/10 05:10:15;;;;;;;4.60;1.60;;;17.10;84.50;;;;;;5059674;28;20017;-74
2021/05/10 05:12:43;;;;;;;6.03;2.10;;;17.00;85.40;;;;;;5059764;28;20131;-74
2021/05/10 05:15:11;;;;;;;6.95;1.30;;;17.00;85.70;;;;;;5058387;28;20029;-74
2021/05/10 05:17:39;;;;;;;4.47;1.85;;;17.00;86.00;;;;;;5059074;28;20110;-74
2021/05/10 05:20:08;;;;;;;3.92;1.17;;;17.00;86.10;;;;;;5059712;28;20414;-74
2021/05/10 05:22:36;;;;;;;5.95;1.52;;;17.10;87.50;;;;;;5059373;28;20048;-74
2021/05/10 05:25:06;;;;;;;5.90;1.55;;;17.10;88.20;;;;;;5059621;28;20096;-74
2021/05/10 05:27:35;;;;;;;4.60;1.20;;;17.20;87.90;;;;;;5059613;28;20018;-73
2021/05/10 05:30:04;;;;;;;7.82;1.30;;;17.20;87.80;;;;;;5059821;28;20113;-74
2021/05/10 05:32:32;;;;;;;6.78;2.13;;;17.30;87.80;;;;;;5058079;28;20025;-73
2021/05/10 05:34:59;;;;;;;3.45;1.30;;;17.50;88.10;;;;;;5058108;28;20079;-73
2021/05/10 05:37:27;;;;;;;3.55;1.20;;;17.50;88.10;;;;;;5059125;28;20053;-74
2021/05/10 05:39:54;;;;;;;6.35;1.08;;;17.60;88.10;;;;;;5058039;28;20061;-74
2021/05/10 05:42:22;;;;;;;4.68;1.42;;;17.80;87.60;;;;;;5058082;28;20024;-74
2021/05/10 05:44:53;;;;;;;3.55;1.30;;;17.90;87.80;;;;;;5058983;28;20161;-74
2021/05/10 05:47:26;;;;;;;6.15;1.45;;;18.00;87.50;;;;;;5059139;28;20024;-73
2021/05/10 05:49:53;;;;;;;2.95;1.30;;;18.10;89.00;;;;;;5058632;28;20031;-74
2021/05/10 05:52:22;;;;;;;3.00;1.45;;;18.30;89.70;;;;;;5058806;28;20108;-74
2021/05/10 05:54:53;;;;;;;3.88;1.40;;;18.40;89.20;;;;;;5059304;28;20448;-74
2021/05/10 05:57:21;;;;;;;4.80;1.48;;;18.50;88.00;;;;;;5059103;28;20035;-74
2021/05/10 05:59:49;;;;;;;2.20;1.40;;;18.60;87.10;;;;;;5059257;28;20367;-74
2021/05/10 06:02:17;;;;;;;2.20;1.10;;;18.70;85.80;;;;;;5058873;28;20074;-74
2021/05/10 06:04:44;;;;;;;5.43;1.40;;;18.70;87.00;;;;;;5058615;28;20082;-74
2021/05/10 06:07:11;;;;;;;7.82;1.13;;;18.70;88.50;;;;;;5059233;28;20013;-74
2021/05/10 06:09:39;;;;;;;4.10;1.38;;;18.70;87.30;;;;;;5058542;28;20017;-74
2021/05/10 06:12:08;;;;;;;2.17;1.13;;;18.70;87.50;;;;;;5058637;28;20025;-74
2021/05/10 06:14:36;;;;;;;2.90;1.30;;;18.80;86.90;;;;;;5058749;28;20025;-73
2021/05/10 06:17:04;;;;;;;3.75;1.50;;;18.80;86.60;;;;;;5058453;28;20324;-73
2021/05/10 06:19:34;;;;;;;3.13;1.42;;;18.90;86.20;;;;;;5058590;28;20025;-73
2021/05/10 06:22:02;;;;;;;2.80;1.85;;;18.90;85.80;;;;;;5058329;28;20451;-74
2021/05/10 06:24:29;;;;;;;4.32;1.80;;;19.00;85.60;;;;;;5057894;28;20029;-73
2021/05/10 06:26:57;;;;;;;5.20;1.55;;;19.00;86.40;;;;;;5058497;28;20017;-73
2021/05/10 06:29:25;;;;;;;4.18;1.70;;;19.10;88.20;;;;;;5059180;28;20347;-73
2021/05/10 06:31:52;;;;;;;3.65;1.27;;;19.10;87.50;;;;;;5058727;28;20100;-73
2021/05/10 06:34:20;;;;;;;2.40;1.30;;;19.10;86.90;;;;;;5058568;28;20317;-74
2021/05/10 06:36:48;;;;;;;4.05;1.10;;;19.10;86.80;;;;;;5058332;28;20021;-74
2021/05/10 06:39:16;;;;;;;5.15;1.25;;;19.20;86.90;;;;;;5057971;28;20021;-74
2021/05/10 06:41:44;;;;;;;6.32;1.30;;;19.30;85.60;;;;;;5057889;28;20036;-73
2021/05/10 06:44:12;;;;;;;2.28;1.25;;;19.40;85.20;;;;;;5057894;28;20040;-72
2021/05/10 06:46:39;;;;;;;2.78;1.25;;;19.50;85.00;;;;;;5056676;28;20463;-72
2021/05/10 06:49:07;;;;;;;4.15;1.13;;;19.70;85.40;;;;;;5056693;28;20429;-73
2021/05/10 06:51:35;;;;;;;2.47;1.00;;;19.80;83.50;;;;;;5056517;28;20033;-72
2021/05/10 06:54:03;;;;;;;4.57;1.05;;;19.90;78.60;;;;;;5057614;28;20467;-73
2021/05/10 06:56:30;;;;;;;1.90;1.05;;;20.00;77.30;;;;;;5057657;28;20075;-75
2021/05/10 06:58:58;;;;;;;4.90;1.20;;;20.20;75.60;;;;;;5058184;28;20049;-75
2021/05/10 07:01:25;;;;;;;3.07;1.30;;;20.40;74.80;;;;;;5057767;28;20021;-75
2021/05/10 07:03:53;;;;;;;3.90;1.30;;;20.50;74.70;;;;;;5057860;28;20017;-72
2021/05/10 07:06:21;;;;;;;4.88;1.02;;;20.70;74.50;;;;;;5058454;28;20344;-72
2021/05/10 07:08:49;;;;;;;4.72;2.08;;;20.80;73.00;;;;;;5058026;28;20017;-73
2021/05/10 07:11:16;;;;;;;1.75;1.00;;;20.90;71.80;;;;;;5057791;28;20023;-75
2021/05/10 07:13:43;;;;;;;3.47;1.33;;;21.00;71.70;;;;;;5056396;28;20443;-75
2021/05/10 07:16:15;;;;;;;7.75;1.77;;;21.10;71.60;;;;;;5057573;28;20371;-75
2021/05/10 07:18:43;;;;;;;6.07;1.08;;;21.10;70.40;;;;;;5056178;28;20025;-75
2021/05/10 07:21:11;;;;;;;2.03;1.15;;;21.10;70.40;;;;;;5057691;28;20029;-78
2021/05/10 07:23:38;;;;;;;5.82;1.27;;;21.00;70.80;;;;;;5056161;28;20131;-75
2021/05/10 07:26:06;;;;;;;3.10;1.00;;;21.00;70.90;;;;;;5057977;28;20021;-75
2021/05/10 07:28:34;;;;;;;4.40;1.27;;;20.90;71.10;;;;;;5056981;28;20096;-74
2021/05/10 07:31:05;;;;;;;5.13;1.10;;;21.00;70.80;;;;;;5056921;28;20021;-75
2021/05/10 07:33:34;;;;;;;4.95;1.00;;;21.10;69.60;;;;;;5057187;28;20108;-75
2021/05/10 07:36:01;;;;;;;6.65;1.50;;;21.20;69.20;;;;;;5056137;28;20423;-74
2021/05/10 07:38:29;;;;;;;5.93;1.40;;;21.30;67.40;;;;;;5057584;28;20094;-72
2021/05/10 07:40:57;;;;;;;3.28;1.20;;;21.30;68.50;;;;;;5057722;28;20022;-72
2021/05/10 07:43:25;;;;;;;2.92;1.65;;;21.30;68.10;;;;;;5056023;28;20179;-72
2021/05/10 07:45:53;;;;;;;3.85;1.38;;;21.30;67.70;;;;;;5057124;28;20078;-72
2021/05/10 07:48:20;;;;;;;3.08;1.10;;;21.40;67.30;;;;;;5057157;28;20423;-72
2021/05/10 07:50:48;;;;;;;4.07;1.20;;;21.40;67.60;;;;;;5057514;28;20032;-72
2021/05/10 07:53:16;;;;;;;2.38;0.98;;;21.50;67.10;;;;;;5057548;28;20401;-71
2021/05/10 07:55:44;;;;;;;5.75;1.25;;;21.60;67.20;;;;;;5057496;28;20025;-71
2021/05/10 07:58:11;;;;;;;4.50;1.52;;;21.70;66.30;;;;;;5057578;28;20455;-72
2021/05/10 08:00:42;;;;;;;3.50;1.50;;;21.80;66.00;;;;;;5056859;28;20028;-72
2021/05/10 08:03:13;;;;;;;3.63;1.30;;;21.90;67.20;;;;;;5056370;28;20032;-71
2021/05/10 08:05:43;;;;;;;2.50;1.13;;;21.90;66.50;;;;;;5058928;28;20374;-72
2021/05/10 08:08:16;;;;;;;5.82;1.27;;;21.90;66.40;;;;;;5059987;28;20373;-72
2021/05/10 08:10:44;;;;;;;3.58;1.15;;;22.10;66.10;;;;;;5061422;28;20052;-72
2021/05/10 08:13:12;;;;;;;6.57;1.63;;;22.20;66.30;;;;;;5061098;28;20032;-71
2021/05/10 08:15:40;;;;;;;4.35;1.10;;;22.30;66.00;;;;;;5061082;28;20032;-72
2021/05/10 08:18:08;;;;;;;4.90;1.30;;;22.40;65.40;;;;;;5060795;28;20028;-73
2021/05/10 08:20:35;;;;;;;2.47;1.33;;;22.50;65.10;;;;;;5061205;28;20416;-72
2021/05/10 08:23:03;;;;;;;2.35;1.20;;;22.60;65.10;;;;;;5060485;28;20057;-72
2021/05/10 08:25:31;;;;;;;3.17;1.40;;;22.70;65.80;;;;;;5061139;28;20032;-72
2021/05/10 08:27:58;;;;;;;2.65;1.33;;;22.80;65.80;;;;;;5060473;28;20100;-72
2021/05/10 08:30:27;;;;;;;3.95;1.45;;;22.80;65.80;;;;;;5060660;28;20021;-72
2021/05/10 08:32:57;;;;;;;2.58;1.20;;;23.00;63.60;;;;;;5060464;28;20029;-72
2021/05/10 08:35:27;;;;;;;2.95;1.35;;;23.00;63.70;;;;;;5060817;28;20313;-72
2021/05/10 08:37:54;;;;;;;3.97;1.23;;;23.20;63.30;;;;;;5059794;28;20112;-74
2021/05/10 08:40:23;;;;;;;4.57;1.10;;;23.30;63.80;;;;;;5058988;28;20115;-72
2021/05/10 08:42:51;;;;;;;2.45;1.10;;;23.40;63.10;;;;;;5059181;28;20028;-72
2021/05/10 08:45:23;;;;;;;2.80;1.65;;;23.50;63.50;;;;;;5060137;28;20021;-71
2021/05/10 08:47:51;;;;;;;4.43;1.17;;;23.50;63.90;;;;;;5060132;28;20029;-72
2021/05/10 08:50:20;;;;;;;5.60;1.30;;;23.50;62.60;;;;;;5060125;28;20021;-72
2021/05/10 08:52:47;;;;;;;2.20;1.38;;;23.50;62.60;;;;;;5060182;28;20029;-72
2021/05/10 08:55:17;;;;;;;7.13;4.18;;;23.50;62.40;;;;;;5060526;28;20124;-72
2021/05/10 08:57:45;;;;;;;5.03;1.80;;;23.40;62.80;;;;;;5060537;28;20412;-72
2021/05/10 09:00:15;;;;;;;7.68;1.25;;;23.30;62.20;;;;;;5059921;28;20348;-72
2021/05/10 09:02:42;;;;;;;4.03;1.85;;;23.30;63.00;;;;;;5059873;28;20017;-72
2021/05/10 09:05:14;;;;;;;3.20;1.13;;;23.30;62.90;;;;;;5059707;28;20025;-72
2021/05/10 09:07:42;;;;;;;2.17;1.38;;;23.30;62.20;;;;;;5060285;28;20017;-72
2021/05/10 09:10:12;;;;;;;2.78;1.00;;;23.30;63.30;;;;;;5059538;28;20071;-72
2021/05/10 09:12:52;;;;;;;5.63;1.50;;;23.40;62.60;;;;;;5058270;28;20116;-71
2021/05/10 09:15:20;;;;;;;4.03;1.40;;;23.40;62.80;;;;;;5059474;28;20460;-71
2021/05/10 09:17:54;;;;;;;2.20;1.33;;;23.40;63.00;;;;;;5058628;28;20123;-72
2021/05/10 09:20:29;;;;;;;4.13;1.38;;;23.50;62.90;;;;;;5059418;28;20024;-71
2021/05/10 09:22:58;;;;;;;;;;;23.60;63.30;;;;;;5059533;28;20094;-72
2021/05/10 09:25:35;;;;;;;3.35;1.23;;;23.70;61.70;;;;;;5059416;28;19995;-72
2021/05/10 09:28:20;;;;;;;2.97;1.35;;;23.80;62.80;;;;;;5059294;28;20017;-72
2021/05/10 09:31:03;;;;;;;5.47;1.73;;;23.90;61.90;;;;;;5059603;28;20062;-76
2021/05/10 09:33:31;;;;;;;2.53;1.38;;;24.00;60.50;;;;;;5059143;28;20029;-74
2021/05/10 09:36:07;;;;;;;3.22;1.30;;;24.10;61.20;;;;;;5059413;28;20371;-74
2021/05/10 09:38:37;;;;;;;3.75;1.20;;;24.20;61.80;;;;;;5059176;28;20029;-73
2021/05/10 09:41:09;;;;;;;2.78;1.30;;;24.20;60.80;;;;;;5061145;28;20021;-74
2021/05/10 09:43:39;;;;;;;3.13;1.40;;;24.20;60.30;;;;;;5059862;28;20108;-73
2021/05/10 09:46:12;;;;;;;3.85;1.20;;;24.30;60.50;;;;;;5058985;28;20029;-74
2021/05/10 09:48:41;;;;;;;5.55;1.20;;;24.30;60.60;;;;;;5058833;28;20105;-74
2021/05/10 09:51:17;;;;;;;3.50;1.52;;;24.40;60.60;;;;;;5058959;28;20017;-74
2021/05/10 09:53:47;;;;;;;;;;;24.50;60.80;;;;;;5059701;28;20031;-74
2021/05/10 09:56:39;;;;;;;5.65;1.38;;;24.40;60.60;;;;;;5058724;28;19912;-75
2021/05/10 09:59:17;;;;;;;5.55;1.35;;;24.40;61.10;;;;;;5058124;28;20029;-74
2021/05/10 10:01:48;;;;;;;3.85;1.40;;;24.40;60.50;;;;;;5058745;28;20079;-74
2021/05/10 10:04:18;;;;;;;2.42;1.13;;;24.40;61.10;;;;;;5058691;28;20025;-74
2021/05/10 10:06:47;;;;;;;2.92;1.05;;;24.30;60.50;;;;;;5058654;28;20017;-74
2021/05/10 10:09:15;;;;;;;3.03;1.10;;;24.20;61.10;;;;;;5057427;28;20018;-74
2021/05/10 10:11:43;;;;;;;3.58;1.40;;;24.20;62.40;;;;;;5058937;28;20028;-74
2021/05/10 10:14:13;;;;;;;2.45;1.23;;;24.20;61.00;;;;;;5057309;28;20481;-74
2021/05/10 10:16:42;;;;;;;2.47;1.23;;;24.30;62.90;;;;;;5058877;28;20025;-74
2021/05/10 10:19:10;;;;;;;2.65;1.02;;;24.30;61.00;;;;;;5058434;28;20120;-75
2021/05/10 10:21:38;;;;;;;4.45;1.40;;;24.40;60.60;;;;;;5057979;28;20040;-75
2021/05/10 10:24:09;;;;;;;3.00;1.05;;;24.40;62.10;;;;;;5058567;28;20423;-74
2021/05/10 10:26:38;;;;;;;5.32;1.17;;;24.50;60.60;;;;;;5057730;28;20025;-74
2021/05/10 10:29:12;;;;;;;2.55;1.50;;;24.60;60.60;;;;;;5058128;28;20013;-74
2021/05/10 10:31:51;;;;;;;2.80;0.98;;;24.70;60.70;;;;;;5058343;28;20104;-75
2021/05/10 10:34:45;;;;;;;4.82;1.10;;;24.80;60.30;;;;;;5058316;28;20020;-75
2021/05/10 10:37:15;;;;;;;4.20;1.20;;;24.90;58.80;;;;;;5058178;28;20021;-73
2021/05/10 10:40:20;;;;;;;5.85;1.00;;;25.00;58.70;;;;;;5058288;28;20032;-75
2021/05/10 10:42:48;;;;;;;2.78;1.00;;;25.10;58.50;;;;;;5046281;28;20321;-75
2021/05/10 10:45:25;;;;;;;2.17;1.40;;;25.20;58.40;;;;;;5058021;28;20092;-74
2021/05/10 10:48:01;;;;;;;4.95;1.30;;;25.30;58.10;;;;;;5057140;28;20017;-74
2021/05/10 10:50:30;;;;;;;4.65;1.63;;;25.50;57.80;;;;;;5057645;28;20082;-74
2021/05/10 10:53:02;;;;;;;8.52;2.53;;;25.70;57.30;;;;;;5058029;28;20107;-72
2021/05/10 10:55:44;;;;;;;2.33;1.13;;;25.90;57.70;;;;;;5057745;28;20029;-74
2021/05/10 10:58:22;;;;;;;3.55;1.20;;;26.00;56.00;;;;;;5057522;28;20024;-74
2021/05/10 11:00:59;;;;;;;5.57;1.67;;;25.90;57.30;;;;;;5057681;28;20105;-74
2021/05/10 11:03:27;;;;;;;3.70;1.15;;;25.80;57.50;;;;;;5057983;28;20025;-74
2021/05/10 11:05:56;;;;;;;3.33;1.05;;;25.60;57.70;;;;;;5058299;28;20067;-75
2021/05/10 11:08:55;;;;;;;4.00;1.30;;;25.50;57.00;;;;;;5058009;28;20282;-74
2021/05/10 11:11:32;;;;;;;3.78;1.10;;;25.30;58.10;;;;;;5057462;28;20021;-74
2021/05/10 11:14:01;;;;;;;1.95;1.20;;;25.10;57.80;;;;;;5057686;28;20017;-75
2021/05/10 11:16:46;;;;;;;4.22;1.05;;;24.90;58.00;;;;;;5058558;28;20429;-74
2021/05/10 11:19:34;;;;;;;;;;;24.80;59.80;;;;;;5057990;28;20013;-74
2021/05/10 11:22:03;;;;;;;;;;;24.80;59.60;;;;;;5057278;28;20308;-72
2021/05/10 11:24:33;;;;;;;3.55;1.00;;;24.80;57.90;;;;;;5057485;28;19909;-71
2021/05/10 11:27:02;;;;;;;10.43;1.20;;;24.90;58.80;;;;;;5057407;28;20376;-73
2021/05/10 11:29:30;;;;;;;6.90;1.38;;;25.10;57.10;;;;;;5057806;28;20467;-73
2021/05/10 11:32:21;;;;;;;4.40;0.90;;;25.30;56.90;;;;;;5057876;28;20052;-74
2021/05/10 11:34:48;;;;;;;2.28;1.10;;;25.50;57.70;;;;;;5057401;28;20027;-71
2021/05/10 11:37:25;;;;;;;4.47;1.10;;;25.50;57.30;;;;;;5056095;28;20021;-71
2021/05/10 11:39:57;;;;;;;6.65;1.40;;;25.60;57.80;;;;;;5060794;28;20021;-72
2021/05/10 11:42:29;;;;;;;7.25;1.30;;;25.50;56.80;;;;;;5061685;28;20060;-74
2021/05/10 11:45:00;;;;;;;4.93;0.80;;;25.30;57.70;;;;;;5061283;28;20021;-74
2021/05/10 11:47:28;;;;;;;3.53;1.35;;;25.10;57.80;;;;;;5061213;28;20059;-75
2021/05/10 11:49:57;;;;;;;2.85;0.70;;;25.20;58.40;;;;;;5061151;28;20017;-75
2021/05/10 11:52:27;;;;;;;3.75;0.93;;;25.30;59.70;;;;;;5060915;28;20055;-74
2021/05/10 11:54:57;;;;;;;5.78;0.93;;;25.40;57.30;;;;;;5061638;28;20029;-74
2021/05/10 11:57:31;;;;;;;4.93;0.88;;;25.30;57.90;;;;;;5061064;28;20028;-72
2021/05/10 12:00:03;;;;;;;12.73;1.30;;;25.10;57.40;;;;;;5061827;28;20312;-73
2021/05/10 12:02:35;;;;;;;5.65;0.82;;;24.90;56.70;;;;;;5060970;28;20443;-73
2021/05/10 12:05:08;;;;;;;5.65;0.85;;;24.90;56.90;;;;;;5061466;28;20086;-73
2021/05/10 12:07:37;;;;;;;4.50;0.95;;;24.90;58.50;;;;;;5060843;28;20055;-73
2021/05/10 12:10:12;;;;;;;2.05;0.90;;;24.90;56.80;;;;;;5060981;28;20103;-73
2021/05/10 12:12:41;;;;;;;;;;;24.90;57.90;;;;;;5061414;28;20230;-73
2021/05/10 12:15:24;;;;;;;4.93;0.82;;;24.80;59.20;;;;;;5060875;28;19905;-73
2021/05/10 12:18:00;;;;;;;5.13;0.90;;;24.70;59.00;;;;;;5059806;28;20060;-73
2021/05/10 12:20:29;;;;;;;8.82;1.42;;;24.70;57.90;;;;;;5059792;28;20371;-72
2021/05/10 12:23:04;;;;;;;4.45;1.60;;;24.70;59.20;;;;;;5059524;28;20049;-73
2021/05/10 12:25:35;;;;;;;2.35;0.90;;;24.80;58.20;;;;;;5058945;28;20028;-73
2021/05/10 12:28:14;;;;;;;5.63;0.82;;;24.90;58.10;;;;;;5059651;28;20029;-73
2021/05/10 12:30:46;;;;;;;7.80;1.17;;;25.20;57.80;;;;;;5060148;28;20017;-75
2021/05/10 12:33:40;;;;;;;10.90;0.85;;;25.50;56.50;;;;;;5060396;28;20028;-75
2021/05/10 12:36:08;;;;;;;6.32;1.17;;;25.70;56.00;;;;;;5060958;28;20493;-75
2021/05/10 12:38:43;;;;;;;4.30;0.80;;;25.80;56.90;;;;;;5059130;28;20116;-75
2021/05/10 12:41:29;;;;;;;3.65;0.88;;;25.80;56.90;;;;;;5060658;28;20428;-75
2021/05/10 12:43:57;;;;;;;8.85;0.93;;;25.90;58.60;;;;;;5060080;28;20025;-75
2021/05/10 12:46:28;;;;;;;6.50;0.93;;;26.10;56.20;;;;;;5060219;28;20401;-73
2021/05/10 12:48:57;;;;;;;3.22;1.08;;;26.30;55.20;;;;;;5059227;28;20021;-72
2021/05/10 12:51:25;;;;;;;6.00;1.05;;;26.50;56.50;;;;;;5058501;28;20021;-72
2021/05/10 12:54:07;;;;;;;3.90;0.70;;;26.50;54.40;;;;;;5059028;28;20021;-72
2021/05/10 12:56:45;;;;;;;4.10;1.13;;;26.40;55.30;;;;;;5060026;28;20025;-72
2021/05/10 12:59:12;;;;;;;4.47;1.40;;;26.30;55.90;;;;;;5057757;28;20059;-72
2021/05/10 13:01:40;;;;;;;5.95;1.10;;;26.20;55.40;;;;;;5059052;28;20025;-72
2021/05/10 13:04:13;;;;;;;3.83;1.00;;;26.10;54.70;;;;;;5059655;28;20095;-73
2021/05/10 13:06:44;;;;;;;1.60;1.10;;;26.00;56.90;;;;;;5058730;28;20025;-73
2021/05/10 13:09:26;;;;;;;2.20;0.90;;;25.80;57.00;;;;;;5059900;28;20098;-73
2021/05/10 13:12:06;;;;;;;6.10;1.38;;;25.50;57.30;;;;;;5059646;28;20025;-73